sensor_id;sensor_type;location;lat;lon;timestamp;P1;durP1;ratioP1;P2;durP2;ratioP2
25319;SDS011;13256;49.012;8.610;2023-02-22T00:00:56;38.35;;;16.15;;
25319;SDS011;13256;49.012;8.610;2023-02-22T00:03:49;42.10;;;13.88;;
25319;SDS011;13256;49.012;8.610;2023-02-22T00:06:21;23.48;;;7.63;;
25319;SDS011;13256;49.012;8.610;2023-02-22T00:08:54;20.27;;;6.72;;
25319;SDS011;13256;49.012;8.610;2023-02-22T00:11:26;23.38;;;9.30;;
25319;SDS011;13256;49.012;8.610;2023-02-22T00:13:56;22.33;;;7.43;;
25319;SDS011;13256;49.012;8.610;2023-02-22T00:16:27;30.35;;;11.73;;
25319;SDS011;13256;49.012;8.610;2023-02-22T00:18:55;47.05;;;17.92;;
25319;SDS011;13256;49.012;8.610;2023-02-22T00:21:24;49.30;;;17.40;;
25319;SDS011;13256;49.012;8.610;2023-02-22T00:24:23;66.70;;;21.55;;
25319;SDS011;13256;49.012;8.610;2023-02-22T00:26:55;19.67;;;9.52;;
25319;SDS011;13256;49.012;8.610;2023-02-22T00:29:24;12.30;;;6.07;;
25319;SDS011;13256;49.012;8.610;2023-02-22T00:31:52;9.05;;;4.60;;
25319;SDS011;13256;49.012;8.610;2023-02-22T00:34:21;13.00;;;5.70;;
25319;SDS011;13256;49.012;8.610;2023-02-22T00:36:52;13.32;;;5.93;;
25319;SDS011;13256;49.012;8.610;2023-02-22T00:39:20;11.07;;;4.88;;
25319;SDS011;13256;49.012;8.610;2023-02-22T00:41:49;10.55;;;4.25;;
25319;SDS011;13256;49.012;8.610;2023-02-22T00:44:19;9.57;;;4.38;;
25319;SDS011;13256;49.012;8.610;2023-02-22T00:46:46;17.20;;;6.07;;
25319;SDS011;13256;49.012;8.610;2023-02-22T00:49:17;12.07;;;6.40;;
25319;SDS011;13256;49.012;8.610;2023-02-22T00:51:44;7.60;;;4.15;;
25319;SDS011;13256;49.012;8.610;2023-02-22T00:54:11;8.90;;;4.13;;
25319;SDS011;13256;49.012;8.610;2023-02-22T00:56:39;8.35;;;3.75;;
25319;SDS011;13256;49.012;8.610;2023-02-22T00:59:12;7.80;;;3.03;;
25319;SDS011;13256;49.012;8.610;2023-02-22T01:01:48;7.78;;;3.53;;
25319;SDS011;13256;49.012;8.610;2023-02-22T01:04:45;9.50;;;3.60;;
25319;SDS011;13256;49.012;8.610;2023-02-22T01:07:15;13.60;;;6.15;;
25319;SDS011;13256;49.012;8.610;2023-02-22T01:09:45;17.35;;;7.50;;
25319;SDS011;13256;49.012;8.610;2023-02-22T01:12:16;8.45;;;4.13;;
25319;SDS011;13256;49.012;8.610;2023-02-22T01:14:45;8.95;;;3.95;;
25319;SDS011;13256;49.012;8.610;2023-02-22T01:17:14;8.95;;;4.43;;
25319;SDS011;13256;49.012;8.610;2023-02-22T01:19:41;5.40;;;3.25;;
25319;SDS011;13256;49.012;8.610;2023-02-22T01:22:10;10.68;;;3.67;;
25319;SDS011;13256;49.012;8.610;2023-02-22T01:24:40;5.53;;;3.05;;
25319;SDS011;13256;49.012;8.610;2023-02-22T01:27:07;4.55;;;3.22;;
25319;SDS011;13256;49.012;8.610;2023-02-22T01:30:29;5.97;;;3.50;;
25319;SDS011;13256;49.012;8.610;2023-02-22T01:33:01;8.80;;;3.88;;
25319;SDS011;13256;49.012;8.610;2023-02-22T01:35:37;6.60;;;3.03;;
25319;SDS011;13256;49.012;8.610;2023-02-22T01:38:14;6.88;;;3.70;;
25319;SDS011;13256;49.012;8.610;2023-02-22T01:40:42;6.72;;;3.75;;
25319;SDS011;13256;49.012;8.610;2023-02-22T01:43:22;4.80;;;3.15;;
25319;SDS011;13256;49.012;8.610;2023-02-22T01:49:22;5.15;;;2.88;;
25319;SDS011;13256;49.012;8.610;2023-02-22T01:51:56;6.05;;;2.45;;
25319;SDS011;13256;49.012;8.610;2023-02-22T01:54:56;4.72;;;2.95;;
25319;SDS011;13256;49.012;8.610;2023-02-22T01:57:26;9.93;;;3.60;;
25319;SDS011;13256;49.012;8.610;2023-02-22T01:59:59;7.65;;;3.15;;
25319;SDS011;13256;49.012;8.610;2023-02-22T02:02:44;8.10;;;3.45;;
25319;SDS011;13256;49.012;8.610;2023-02-22T02:05:45;8.30;;;2.90;;
25319;SDS011;13256;49.012;8.610;2023-02-22T02:08:24;9.45;;;3.20;;
25319;SDS011;13256;49.012;8.610;2023-02-22T02:11:03;9.63;;;3.63;;
25319;SDS011;13256;49.012;8.610;2023-02-22T02:13:34;5.47;;;2.83;;
25319;SDS011;13256;49.012;8.610;2023-02-22T02:16:02;5.63;;;2.63;;
25319;SDS011;13256;49.012;8.610;2023-02-22T02:18:33;5.70;;;2.80;;
25319;SDS011;13256;49.012;8.610;2023-02-22T02:41:13;6.50;;;3.85;;
25319;SDS011;13256;49.012;8.610;2023-02-22T02:44:01;4.95;;;3.20;;
25319;SDS011;13256;49.012;8.610;2023-02-22T02:46:36;10.07;;;4.35;;
25319;SDS011;13256;49.012;8.610;2023-02-22T02:49:23;6.18;;;3.28;;
25319;SDS011;13256;49.012;8.610;2023-02-22T02:52:01;6.32;;;3.30;;
25319;SDS011;13256;49.012;8.610;2023-02-22T02:54:35;5.90;;;3.00;;
25319;SDS011;13256;49.012;8.610;2023-02-22T02:57:04;13.98;;;3.70;;
25319;SDS011;13256;49.012;8.610;2023-02-22T02:59:33;5.30;;;2.30;;
25319;SDS011;13256;49.012;8.610;2023-02-22T03:02:24;7.55;;;2.70;;
25319;SDS011;13256;49.012;8.610;2023-02-22T03:08:08;10.40;;;3.30;;
25319;SDS011;13256;49.012;8.610;2023-02-22T03:32:50;6.53;;;3.47;;
25319;SDS011;13256;49.012;8.610;2023-02-22T03:35:30;6.30;;;3.17;;
25319;SDS011;13256;49.012;8.610;2023-02-22T03:38:06;5.15;;;3.42;;
25319;SDS011;13256;49.012;8.610;2023-02-22T03:40:41;5.55;;;2.85;;
25319;SDS011;13256;49.012;8.610;2023-02-22T03:43:20;7.25;;;3.00;;
25319;SDS011;13256;49.012;8.610;2023-02-22T03:45:58;3.87;;;2.13;;
25319;SDS011;13256;49.012;8.610;2023-02-22T03:51:01;9.93;;;3.70;;
25319;SDS011;13256;49.012;8.610;2023-02-22T03:53:31;8.07;;;3.13;;
25319;SDS011;13256;49.012;8.610;2023-02-22T03:56:03;7.25;;;3.33;;
25319;SDS011;13256;49.012;8.610;2023-02-22T03:58:36;6.85;;;3.47;;
25319;SDS011;13256;49.012;8.610;2023-02-22T04:01:06;6.15;;;3.35;;
25319;SDS011;13256;49.012;8.610;2023-02-22T04:03:38;5.77;;;3.07;;
25319;SDS011;13256;49.012;8.610;2023-02-22T04:06:07;6.60;;;2.92;;
25319;SDS011;13256;49.012;8.610;2023-02-22T04:08:34;5.28;;;2.72;;
25319;SDS011;13256;49.012;8.610;2023-02-22T04:11:03;7.40;;;3.22;;
25319;SDS011;13256;49.012;8.610;2023-02-22T04:13:36;6.38;;;2.85;;
25319;SDS011;13256;49.012;8.610;2023-02-22T04:16:06;5.85;;;3.25;;
25319;SDS011;13256;49.012;8.610;2023-02-22T04:18:35;7.38;;;3.00;;
25319;SDS011;13256;49.012;8.610;2023-02-22T04:21:05;5.20;;;3.20;;
25319;SDS011;13256;49.012;8.610;2023-02-22T04:23:39;8.55;;;3.35;;
25319;SDS011;13256;49.012;8.610;2023-02-22T04:26:06;7.80;;;3.13;;
25319;SDS011;13256;49.012;8.610;2023-02-22T04:28:33;5.70;;;3.22;;
25319;SDS011;13256;49.012;8.610;2023-02-22T04:31:13;7.78;;;3.33;;
25319;SDS011;13256;49.012;8.610;2023-02-22T04:33:41;6.63;;;3.22;;
25319;SDS011;13256;49.012;8.610;2023-02-22T04:36:14;7.88;;;3.38;;
25319;SDS011;13256;49.012;8.610;2023-02-22T04:38:49;5.88;;;3.13;;
25319;SDS011;13256;49.012;8.610;2023-02-22T04:41:16;6.00;;;2.92;;
25319;SDS011;13256;49.012;8.610;2023-02-22T04:43:44;6.60;;;3.45;;
25319;SDS011;13256;49.012;8.610;2023-02-22T04:46:31;5.45;;;3.40;;
25319;SDS011;13256;49.012;8.610;2023-02-22T04:48:58;4.55;;;2.88;;
25319;SDS011;13256;49.012;8.610;2023-02-22T04:51:28;10.63;;;3.10;;
25319;SDS011;13256;49.012;8.610;2023-02-22T04:56:36;6.43;;;3.10;;
25319;SDS011;13256;49.012;8.610;2023-02-22T04:59:07;6.72;;;3.33;;
25319;SDS011;13256;49.012;8.610;2023-02-22T05:01:47;6.68;;;3.20;;
25319;SDS011;13256;49.012;8.610;2023-02-22T05:04:15;14.02;;;6.07;;
25319;SDS011;13256;49.012;8.610;2023-02-22T05:06:47;29.63;;;8.48;;
25319;SDS011;13256;49.012;8.610;2023-02-22T05:09:15;7.93;;;3.53;;
25319;SDS011;13256;49.012;8.610;2023-02-22T05:11:45;10.48;;;3.80;;
25319;SDS011;13256;49.012;8.610;2023-02-22T05:14:12;11.13;;;3.15;;
25319;SDS011;13256;49.012;8.610;2023-02-22T05:16:41;10.63;;;4.38;;
25319;SDS011;13256;49.012;8.610;2023-02-22T05:19:08;10.02;;;3.72;;
25319;SDS011;13256;49.012;8.610;2023-02-22T05:21:35;8.85;;;3.65;;
25319;SDS011;13256;49.012;8.610;2023-02-22T05:24:04;12.20;;;5.00;;
25319;SDS011;13256;49.012;8.610;2023-02-22T05:26:34;13.27;;;5.78;;
25319;SDS011;13256;49.012;8.610;2023-02-22T05:29:02;10.20;;;4.80;;
25319;SDS011;13256;49.012;8.610;2023-02-22T05:31:29;13.32;;;4.80;;
25319;SDS011;13256;49.012;8.610;2023-02-22T05:33:59;13.85;;;5.63;;
25319;SDS011;13256;49.012;8.610;2023-02-22T05:36:30;12.18;;;5.25;;
25319;SDS011;13256;49.012;8.610;2023-02-22T05:38:57;15.60;;;6.07;;
25319;SDS011;13256;49.012;8.610;2023-02-22T05:41:25;9.95;;;5.35;;
25319;SDS011;13256;49.012;8.610;2023-02-22T05:43:59;13.98;;;5.53;;
25319;SDS011;13256;49.012;8.610;2023-02-22T05:46:28;9.05;;;4.65;;
25319;SDS011;13256;49.012;8.610;2023-02-22T05:48:55;9.50;;;4.88;;
25319;SDS011;13256;49.012;8.610;2023-02-22T05:51:22;10.30;;;5.68;;
25319;SDS011;13256;49.012;8.610;2023-02-22T05:53:49;12.23;;;5.65;;
25319;SDS011;13256;49.012;8.610;2023-02-22T05:56:19;18.10;;;7.00;;
25319;SDS011;13256;49.012;8.610;2023-02-22T05:58:52;26.67;;;9.52;;
25319;SDS011;13256;49.012;8.610;2023-02-22T06:01:24;26.40;;;12.27;;
25319;SDS011;13256;49.012;8.610;2023-02-22T06:03:52;40.40;;;13.52;;
25319;SDS011;13256;49.012;8.610;2023-02-22T06:06:20;44.00;;;15.20;;
25319;SDS011;13256;49.012;8.610;2023-02-22T06:08:51;41.83;;;14.50;;
25319;SDS011;13256;49.012;8.610;2023-02-22T06:11:24;42.25;;;16.00;;
25319;SDS011;13256;49.012;8.610;2023-02-22T06:13:54;65.00;;;21.55;;
25319;SDS011;13256;49.012;8.610;2023-02-22T06:16:31;63.30;;;23.55;;
25319;SDS011;13256;49.012;8.610;2023-02-22T06:19:01;88.88;;;28.83;;
25319;SDS011;13256;49.012;8.610;2023-02-22T06:21:30;62.25;;;23.92;;
25319;SDS011;13256;49.012;8.610;2023-02-22T06:24:01;51.90;;;19.85;;
25319;SDS011;13256;49.012;8.610;2023-02-22T06:26:31;45.85;;;15.82;;
25319;SDS011;13256;49.012;8.610;2023-02-22T06:29:01;43.88;;;15.63;;
25319;SDS011;13256;49.012;8.610;2023-02-22T06:34:02;39.72;;;13.20;;
25319;SDS011;13256;49.012;8.610;2023-02-22T06:36:30;40.30;;;14.98;;
25319;SDS011;13256;49.012;8.610;2023-02-22T06:39:01;47.53;;;20.70;;
25319;SDS011;13256;49.012;8.610;2023-02-22T06:41:31;25.38;;;12.98;;
25319;SDS011;13256;49.012;8.610;2023-02-22T06:44:02;28.10;;;11.73;;
25319;SDS011;13256;49.012;8.610;2023-02-22T06:46:29;27.05;;;11.48;;
25319;SDS011;13256;49.012;8.610;2023-02-22T06:49:02;21.50;;;9.95;;
25319;SDS011;13256;49.012;8.610;2023-02-22T06:51:36;17.95;;;8.65;;
25319;SDS011;13256;49.012;8.610;2023-02-22T06:54:03;20.60;;;8.30;;
25319;SDS011;13256;49.012;8.610;2023-02-22T06:56:31;25.15;;;9.30;;
25319;SDS011;13256;49.012;8.610;2023-02-22T06:58:59;24.60;;;8.90;;
25319;SDS011;13256;49.012;8.610;2023-02-22T07:01:32;26.05;;;10.32;;
25319;SDS011;13256;49.012;8.610;2023-02-22T07:03:59;21.48;;;9.38;;
25319;SDS011;13256;49.012;8.610;2023-02-22T07:06:44;23.70;;;8.80;;
25319;SDS011;13256;49.012;8.610;2023-02-22T07:11:45;12.95;;;6.25;;
25319;SDS011;13256;49.012;8.610;2023-02-22T07:14:17;13.68;;;6.00;;
25319;SDS011;13256;49.012;8.610;2023-02-22T07:16:44;16.43;;;7.17;;
25319;SDS011;13256;49.012;8.610;2023-02-22T07:19:17;14.55;;;7.53;;
25319;SDS011;13256;49.012;8.610;2023-02-22T07:21:52;12.27;;;7.00;;
25319;SDS011;13256;49.012;8.610;2023-02-22T07:24:25;11.38;;;6.32;;
25319;SDS011;13256;49.012;8.610;2023-02-22T07:27:04;12.40;;;6.15;;
25319;SDS011;13256;49.012;8.610;2023-02-22T07:29:44;18.40;;;7.00;;
25319;SDS011;13256;49.012;8.610;2023-02-22T07:32:20;21.15;;;8.15;;
25319;SDS011;13256;49.012;8.610;2023-02-22T07:34:51;21.58;;;8.68;;
25319;SDS011;13256;49.012;8.610;2023-02-22T07:37:27;17.05;;;7.93;;
25319;SDS011;13256;49.012;8.610;2023-02-22T07:40:00;14.32;;;7.22;;
25319;SDS011;13256;49.012;8.610;2023-02-22T07:42:30;17.85;;;6.45;;
25319;SDS011;13256;49.012;8.610;2023-02-22T07:44:58;14.77;;;7.03;;
25319;SDS011;13256;49.012;8.610;2023-02-22T07:47:28;16.25;;;7.93;;
25319;SDS011;13256;49.012;8.610;2023-02-22T07:49:58;17.58;;;9.15;;
25319;SDS011;13256;49.012;8.610;2023-02-22T07:52:25;19.73;;;9.65;;
25319;SDS011;13256;49.012;8.610;2023-02-22T07:54:56;19.48;;;9.38;;
25319;SDS011;13256;49.012;8.610;2023-02-22T07:57:25;19.00;;;10.20;;
25319;SDS011;13256;49.012;8.610;2023-02-22T08:00:04;16.92;;;8.25;;
25319;SDS011;13256;49.012;8.610;2023-02-22T08:02:57;16.85;;;9.40;;
25319;SDS011;13256;49.012;8.610;2023-02-22T08:08:22;27.17;;;13.27;;
25319;SDS011;13256;49.012;8.610;2023-02-22T08:11:01;31.00;;;12.77;;
25319;SDS011;13256;49.012;8.610;2023-02-22T08:13:34;31.80;;;11.60;;
25319;SDS011;13256;49.012;8.610;2023-02-22T08:16:08;26.15;;;10.15;;
25319;SDS011;13256;49.012;8.610;2023-02-22T08:18:37;13.80;;;6.25;;
25319;SDS011;13256;49.012;8.610;2023-02-22T08:21:09;11.73;;;6.35;;
25319;SDS011;13256;49.012;8.610;2023-02-22T08:23:43;13.80;;;6.43;;
25319;SDS011;13256;49.012;8.610;2023-02-22T08:26:16;10.02;;;5.90;;
25319;SDS011;13256;49.012;8.610;2023-02-22T08:28:47;11.82;;;5.85;;
25319;SDS011;13256;49.012;8.610;2023-02-22T08:31:27;9.43;;;5.50;;
25319;SDS011;13256;49.012;8.610;2023-02-22T08:33:58;15.73;;;5.68;;
25319;SDS011;13256;49.012;8.610;2023-02-22T08:36:29;11.02;;;5.85;;
25319;SDS011;13256;49.012;8.610;2023-02-22T08:39:00;11.50;;;5.38;;
25319;SDS011;13256;49.012;8.610;2023-02-22T08:41:31;12.18;;;5.60;;
25319;SDS011;13256;49.012;8.610;2023-02-22T08:44:01;10.30;;;5.57;;
25319;SDS011;13256;49.012;8.610;2023-02-22T08:46:33;11.95;;;6.00;;
25319;SDS011;13256;49.012;8.610;2023-02-22T08:49:05;18.33;;;7.70;;
25319;SDS011;13256;49.012;8.610;2023-02-22T08:51:36;27.25;;;11.63;;
25319;SDS011;13256;49.012;8.610;2023-02-22T08:54:15;18.50;;;8.30;;
25319;SDS011;13256;49.012;8.610;2023-02-22T08:56:52;15.82;;;7.60;;
25319;SDS011;13256;49.012;8.610;2023-02-22T08:59:21;12.82;;;6.03;;
25319;SDS011;13256;49.012;8.610;2023-02-22T09:01:50;15.65;;;8.30;;
25319;SDS011;13256;49.012;8.610;2023-02-22T09:04:19;20.10;;;7.22;;
25319;SDS011;13256;49.012;8.610;2023-02-22T09:06:46;16.50;;;7.57;;
25319;SDS011;13256;49.012;8.610;2023-02-22T09:11:49;12.18;;;7.03;;
25319;SDS011;13256;49.012;8.610;2023-02-22T09:14:21;12.43;;;6.40;;
25319;SDS011;13256;49.012;8.610;2023-02-22T09:16:49;16.40;;;7.60;;
25319;SDS011;13256;49.012;8.610;2023-02-22T09:19:22;15.40;;;7.63;;
25319;SDS011;13256;49.012;8.610;2023-02-22T09:21:57;14.93;;;8.05;;
25319;SDS011;13256;49.012;8.610;2023-02-22T09:24:35;14.05;;;7.70;;
25319;SDS011;13256;49.012;8.610;2023-02-22T09:27:06;14.68;;;5.65;;
25319;SDS011;13256;49.012;8.610;2023-02-22T09:29:39;11.90;;;6.35;;
25319;SDS011;13256;49.012;8.610;2023-02-22T09:32:10;17.67;;;7.32;;
25319;SDS011;13256;49.012;8.610;2023-02-22T09:34:44;26.10;;;12.15;;
25319;SDS011;13256;49.012;8.610;2023-02-22T09:37:12;28.73;;;9.68;;
25319;SDS011;13256;49.012;8.610;2023-02-22T09:39:40;15.57;;;8.63;;
25319;SDS011;13256;49.012;8.610;2023-02-22T09:47:39;11.88;;;7.40;;
25319;SDS011;13256;49.012;8.610;2023-02-22T09:50:19;15.73;;;6.85;;
25319;SDS011;13256;49.012;8.610;2023-02-22T09:52:53;15.80;;;7.53;;
25319;SDS011;13256;49.012;8.610;2023-02-22T09:55:46;15.60;;;7.03;;
25319;SDS011;13256;49.012;8.610;2023-02-22T09:58:21;10.07;;;5.70;;
25319;SDS011;13256;49.012;8.610;2023-02-22T10:01:45;10.70;;;5.13;;
25319;SDS011;13256;49.012;8.610;2023-02-22T10:06:55;9.68;;;4.85;;
25319;SDS011;13256;49.012;8.610;2023-02-22T10:09:47;11.65;;;4.95;;
25319;SDS011;13256;49.012;8.610;2023-02-22T10:17:59;6.90;;;3.67;;
25319;SDS011;13256;49.012;8.610;2023-02-22T10:23:52;7.40;;;4.20;;
25319;SDS011;13256;49.012;8.610;2023-02-22T10:26:35;7.47;;;3.80;;
25319;SDS011;13256;49.012;8.610;2023-02-22T10:29:21;7.97;;;4.28;;
25319;SDS011;13256;49.012;8.610;2023-02-22T10:32:22;11.25;;;4.43;;
25319;SDS011;13256;49.012;8.610;2023-02-22T10:35:27;10.68;;;4.45;;
25319;SDS011;13256;49.012;8.610;2023-02-22T10:37:59;7.57;;;3.80;;
25319;SDS011;13256;49.012;8.610;2023-02-22T10:40:39;7.25;;;3.70;;
25319;SDS011;13256;49.012;8.610;2023-02-22T10:43:39;8.30;;;3.92;;
25319;SDS011;13256;49.012;8.610;2023-02-22T10:46:14;7.88;;;4.43;;
25319;SDS011;13256;49.012;8.610;2023-02-22T10:48:55;9.38;;;5.00;;
25319;SDS011;13256;49.012;8.610;2023-02-22T10:51:29;14.18;;;6.38;;
25319;SDS011;13256;49.012;8.610;2023-02-22T10:56:47;14.80;;;6.75;;
25319;SDS011;13256;49.012;8.610;2023-02-22T10:59:32;13.85;;;5.85;;
25319;SDS011;13256;49.012;8.610;2023-02-22T11:04:55;10.02;;;5.28;;
25319;SDS011;13256;49.012;8.610;2023-02-22T11:09:57;14.50;;;6.00;;
25319;SDS011;13256;49.012;8.610;2023-02-22T11:12:34;11.13;;;6.20;;
25319;SDS011;13256;49.012;8.610;2023-02-22T11:17:55;12.27;;;5.90;;
25319;SDS011;13256;49.012;8.610;2023-02-22T11:20:28;15.10;;;5.57;;
25319;SDS011;13256;49.012;8.610;2023-02-22T11:23:01;10.07;;;5.35;;
25319;SDS011;13256;49.012;8.610;2023-02-22T11:25:37;9.88;;;5.32;;
25319;SDS011;13256;49.012;8.610;2023-02-22T11:28:14;13.38;;;6.55;;
25319;SDS011;13256;49.012;8.610;2023-02-22T11:31:10;8.07;;;5.30;;
25319;SDS011;13256;49.012;8.610;2023-02-22T11:33:55;13.52;;;6.03;;
25319;SDS011;13256;49.012;8.610;2023-02-22T11:36:38;9.60;;;5.32;;
25319;SDS011;13256;49.012;8.610;2023-02-22T11:45:21;12.32;;;5.57;;
25319;SDS011;13256;49.012;8.610;2023-02-22T11:47:58;13.23;;;5.82;;
25319;SDS011;13256;49.012;8.610;2023-02-22T11:50:29;10.00;;;5.22;;
25319;SDS011;13256;49.012;8.610;2023-02-22T11:56:15;10.52;;;5.68;;
25319;SDS011;13256;49.012;8.610;2023-02-22T12:09:47;20.13;;;8.90;;
25319;SDS011;13256;49.012;8.610;2023-02-22T12:17:39;12.25;;;5.75;;
25319;SDS011;13256;49.012;8.610;2023-02-22T12:20:43;14.40;;;6.15;;
25319;SDS011;13256;49.012;8.610;2023-02-22T12:26:53;14.50;;;6.20;;
25319;SDS011;13256;49.012;8.610;2023-02-22T12:32:45;14.55;;;6.47;;
25319;SDS011;13256;49.012;8.610;2023-02-22T12:41:19;13.98;;;5.53;;
25319;SDS011;13256;49.012;8.610;2023-02-22T12:44:08;10.48;;;5.93;;
25319;SDS011;13256;49.012;8.610;2023-02-22T12:46:50;16.55;;;6.57;;
25319;SDS011;13256;49.012;8.610;2023-02-22T12:49:24;13.30;;;6.15;;
25319;SDS011;13256;49.012;8.610;2023-02-22T12:55:19;11.35;;;5.75;;
25319;SDS011;13256;49.012;8.610;2023-02-22T13:00:53;14.07;;;6.22;;
25319;SDS011;13256;49.012;8.610;2023-02-22T13:03:35;15.23;;;6.70;;
25319;SDS011;13256;49.012;8.610;2023-02-22T13:26:28;15.20;;;6.57;;
25319;SDS011;13256;49.012;8.610;2023-02-22T13:28:54;16.85;;;6.93;;
25319;SDS011;13256;49.012;8.610;2023-02-22T13:31:58;15.52;;;6.72;;
25319;SDS011;13256;49.012;8.610;2023-02-22T13:43:53;13.15;;;6.32;;
25319;SDS011;13256;49.012;8.610;2023-02-22T13:52:36;13.57;;;6.28;;
25319;SDS011;13256;49.012;8.610;2023-02-22T13:58:09;11.95;;;6.32;;
25319;SDS011;13256;49.012;8.610;2023-02-22T14:05:58;17.02;;;6.80;;
25319;SDS011;13256;49.012;8.610;2023-02-22T14:08:38;13.52;;;6.50;;
25319;SDS011;13256;49.012;8.610;2023-02-22T14:19:59;15.13;;;6.88;;
25319;SDS011;13256;49.012;8.610;2023-02-22T14:22:51;14.52;;;7.22;;
25319;SDS011;13256;49.012;8.610;2023-02-22T14:26:53;15.43;;;6.85;;
25319;SDS011;13256;49.012;8.610;2023-02-22T14:29:02;17.55;;;7.70;;
25319;SDS011;13256;49.012;8.610;2023-02-22T14:37:58;15.93;;;8.07;;
25319;SDS011;13256;49.012;8.610;2023-02-22T14:40:30;13.70;;;7.47;;
25319;SDS011;13256;49.012;8.610;2023-02-22T14:45:54;13.32;;;6.95;;
25319;SDS011;13256;49.012;8.610;2023-02-22T14:48:38;16.15;;;8.00;;
25319;SDS011;13256;49.012;8.610;2023-02-22T14:51:21;13.02;;;7.13;;
25319;SDS011;13256;49.012;8.610;2023-02-22T15:02:58;13.43;;;7.10;;
25319;SDS011;13256;49.012;8.610;2023-02-22T15:05:33;13.70;;;7.50;;
25319;SDS011;13256;49.012;8.610;2023-02-22T15:08:11;18.38;;;8.52;;
25319;SDS011;13256;49.012;8.610;2023-02-22T15:17:04;15.70;;;8.65;;
25319;SDS011;13256;49.012;8.610;2023-02-22T15:20:01;18.17;;;9.38;;
25319;SDS011;13256;49.012;8.610;2023-02-22T15:22:36;16.67;;;9.60;;
25319;SDS011;13256;49.012;8.610;2023-02-22T15:25:11;17.63;;;9.32;;
25319;SDS011;13256;49.012;8.610;2023-02-22T15:27:44;15.98;;;9.02;;
25319;SDS011;13256;49.012;8.610;2023-02-22T15:30:24;17.42;;;9.15;;
25319;SDS011;13256;49.012;8.610;2023-02-22T15:36:12;22.08;;;9.23;;
25319;SDS011;13256;49.012;8.610;2023-02-22T15:38:46;19.30;;;8.77;;
25319;SDS011;13256;49.012;8.610;2023-02-22T15:41:30;19.27;;;9.50;;
25319;SDS011;13256;49.012;8.610;2023-02-22T15:44:08;21.83;;;9.43;;
25319;SDS011;13256;49.012;8.610;2023-02-22T15:46:59;16.55;;;9.20;;
25319;SDS011;13256;49.012;8.610;2023-02-22T15:49:27;21.88;;;9.60;;
25319;SDS011;13256;49.012;8.610;2023-02-22T15:52:02;22.00;;;11.27;;
25319;SDS011;13256;49.012;8.610;2023-02-22T15:54:47;21.48;;;11.52;;
25319;SDS011;13256;49.012;8.610;2023-02-22T15:57:21;19.73;;;9.93;;
25319;SDS011;13256;49.012;8.610;2023-02-22T15:59:52;16.77;;;9.38;;
25319;SDS011;13256;49.012;8.610;2023-02-22T16:02:43;35.55;;;13.23;;
25319;SDS011;13256;49.012;8.610;2023-02-22T16:05:17;32.60;;;12.82;;
25319;SDS011;13256;49.012;8.610;2023-02-22T16:08:01;48.35;;;16.67;;
25319;SDS011;13256;49.012;8.610;2023-02-22T16:10:33;35.42;;;15.00;;
25319;SDS011;13256;49.012;8.610;2023-02-22T16:13:36;27.95;;;11.43;;
25319;SDS011;13256;49.012;8.610;2023-02-22T16:18:49;19.10;;;9.90;;
25319;SDS011;13256;49.012;8.610;2023-02-22T16:21:20;21.17;;;10.60;;
25319;SDS011;13256;49.012;8.610;2023-02-22T16:23:53;18.98;;;11.07;;
25319;SDS011;13256;49.012;8.610;2023-02-22T16:26:33;16.52;;;10.00;;
25319;SDS011;13256;49.012;8.610;2023-02-22T16:29:02;18.95;;;9.40;;
25319;SDS011;13256;49.012;8.610;2023-02-22T16:31:50;22.95;;;10.65;;
25319;SDS011;13256;49.012;8.610;2023-02-22T16:34:17;22.15;;;11.10;;
25319;SDS011;13256;49.012;8.610;2023-02-22T16:36:45;25.73;;;11.60;;
25319;SDS011;13256;49.012;8.610;2023-02-22T16:39:22;22.15;;;10.45;;
25319;SDS011;13256;49.012;8.610;2023-02-22T16:41:59;18.15;;;9.40;;
25319;SDS011;13256;49.012;8.610;2023-02-22T16:44:27;19.77;;;9.85;;
25319;SDS011;13256;49.012;8.610;2023-02-22T16:46:56;21.02;;;9.32;;
25319;SDS011;13256;49.012;8.610;2023-02-22T16:49:24;21.00;;;10.65;;
25319;SDS011;13256;49.012;8.610;2023-02-22T16:51:53;17.52;;;10.10;;
25319;SDS011;13256;49.012;8.610;2023-02-22T16:54:28;21.40;;;9.98;;
25319;SDS011;13256;49.012;8.610;2023-02-22T16:56:59;21.33;;;10.10;;
25319;SDS011;13256;49.012;8.610;2023-02-22T16:59:27;19.98;;;9.57;;
25319;SDS011;13256;49.012;8.610;2023-02-22T17:02:05;20.35;;;10.48;;
25319;SDS011;13256;49.012;8.610;2023-02-22T17:04:36;19.92;;;10.35;;
25319;SDS011;13256;49.012;8.610;2023-02-22T17:07:08;21.13;;;10.55;;
25319;SDS011;13256;49.012;8.610;2023-02-22T17:09:40;21.95;;;9.75;;
25319;SDS011;13256;49.012;8.610;2023-02-22T17:12:08;20.13;;;10.70;;
25319;SDS011;13256;49.012;8.610;2023-02-22T17:17:34;20.77;;;10.32;;
25319;SDS011;13256;49.012;8.610;2023-02-22T17:23:33;26.40;;;9.82;;
25319;SDS011;13256;49.012;8.610;2023-02-22T17:26:06;19.10;;;10.85;;
25319;SDS011;13256;49.012;8.610;2023-02-22T17:28:36;18.90;;;9.48;;
25319;SDS011;13256;49.012;8.610;2023-02-22T17:31:18;20.95;;;10.68;;
25319;SDS011;13256;49.012;8.610;2023-02-22T17:39:39;23.13;;;11.55;;
25319;SDS011;13256;49.012;8.610;2023-02-22T17:42:07;23.20;;;11.70;;
25319;SDS011;13256;49.012;8.610;2023-02-22T17:44:35;29.80;;;14.18;;
25319;SDS011;13256;49.012;8.610;2023-02-22T17:47:03;30.25;;;13.93;;
25319;SDS011;13256;49.012;8.610;2023-02-22T17:49:35;36.13;;;15.70;;
25319;SDS011;13256;49.012;8.610;2023-02-22T17:52:06;27.33;;;14.18;;
25319;SDS011;13256;49.012;8.610;2023-02-22T17:54:44;25.80;;;13.43;;
25319;SDS011;13256;49.012;8.610;2023-02-22T17:57:11;27.80;;;14.35;;
25319;SDS011;13256;49.012;8.610;2023-02-22T18:02:53;28.97;;;14.40;;
25319;SDS011;13256;49.012;8.610;2023-02-22T18:08:44;30.38;;;15.30;;
25319;SDS011;13256;49.012;8.610;2023-02-22T18:14:24;26.25;;;13.05;;
25319;SDS011;13256;49.012;8.610;2023-02-22T18:17:02;27.45;;;14.57;;
25319;SDS011;13256;49.012;8.610;2023-02-22T18:25:04;30.40;;;15.10;;
25319;SDS011;13256;49.012;8.610;2023-02-22T18:27:34;28.58;;;13.88;;
25319;SDS011;13256;49.012;8.610;2023-02-22T18:30:10;34.42;;;16.08;;
25319;SDS011;13256;49.012;8.610;2023-02-22T18:32:53;31.50;;;14.95;;
25319;SDS011;13256;49.012;8.610;2023-02-22T18:35:23;32.28;;;15.95;;
25319;SDS011;13256;49.012;8.610;2023-02-22T18:43:32;32.45;;;14.85;;
25319;SDS011;13256;49.012;8.610;2023-02-22T18:49:03;31.92;;;15.18;;
25319;SDS011;13256;49.012;8.610;2023-02-22T18:54:24;28.92;;;15.13;;
25319;SDS011;13256;49.012;8.610;2023-02-22T18:56:57;33.42;;;17.30;;
25319;SDS011;13256;49.012;8.610;2023-02-22T18:59:25;36.10;;;17.27;;
25319;SDS011;13256;49.012;8.610;2023-02-22T19:01:58;43.20;;;18.42;;
25319;SDS011;13256;49.012;8.610;2023-02-22T19:04:29;31.75;;;16.98;;
25319;SDS011;13256;49.012;8.610;2023-02-22T19:07:03;34.47;;;17.92;;
25319;SDS011;13256;49.012;8.610;2023-02-22T19:09:31;39.00;;;18.75;;
25319;SDS011;13256;49.012;8.610;2023-02-22T19:12:00;40.63;;;20.48;;
25319;SDS011;13256;49.012;8.610;2023-02-22T19:14:27;34.50;;;20.23;;
25319;SDS011;13256;49.012;8.610;2023-02-22T19:20:02;36.53;;;19.25;;
25319;SDS011;13256;49.012;8.610;2023-02-22T19:22:42;38.65;;;18.77;;
25319;SDS011;13256;49.012;8.610;2023-02-22T19:25:10;33.90;;;17.27;;
25319;SDS011;13256;49.012;8.610;2023-02-22T19:33:21;38.90;;;18.17;;
25319;SDS011;13256;49.012;8.610;2023-02-22T19:38:50;33.30;;;18.02;;
25319;SDS011;13256;49.012;8.610;2023-02-22T19:41:31;38.30;;;17.30;;
25319;SDS011;13256;49.012;8.610;2023-02-22T19:43:59;43.00;;;19.08;;
25319;SDS011;13256;49.012;8.610;2023-02-22T19:46:32;43.08;;;22.60;;